createdAt,value
2018-12-10T00:01:20.363Z,32.67
2018-12-10T00:03:53.072Z,32.83
2018-12-10T00:06:25.632Z,31.90
2018-12-10T00:08:56.106Z,31.90
2018-12-10T00:11:26.247Z,31.83
2018-12-10T00:13:56.441Z,30.40
2018-12-10T00:16:26.774Z,32.33
2018-12-10T00:18:57.204Z,32.93
2018-12-10T00:21:27.514Z,33.77
2018-12-10T00:23:58.369Z,35.00
2018-12-10T00:26:28.550Z,34.07
2018-12-10T00:28:58.950Z,36.10
2018-12-10T00:31:29.266Z,35.97
2018-12-10T00:33:59.873Z,35.50
2018-12-10T00:36:30.264Z,30.47
2018-12-10T00:39:00.523Z,30.83
2018-12-10T00:41:30.950Z,30.90
2018-12-10T00:44:01.165Z,29.70
2018-12-10T00:46:31.385Z,29.97
2018-12-10T00:49:01.615Z,27.93
2018-12-10T00:51:32.728Z,27.57
2018-12-10T00:54:03.170Z,28.87
2018-12-10T00:56:33.409Z,30.27
2018-12-10T00:59:03.821Z,30.43
2018-12-10T01:01:34.312Z,26.37
2018-12-10T01:04:05.089Z,26.60
2018-12-10T01:06:35.595Z,26.93
2018-12-10T01:09:07.110Z,27.70
2018-12-10T01:11:38.488Z,26.90
2018-12-10T01:14:08.888Z,28.33
2018-12-10T01:16:39.842Z,31.00
2018-12-10T01:19:09.958Z,31.17
2018-12-10T01:21:40.194Z,31.70
2018-12-10T01:24:11.457Z,32.07
2018-12-10T01:26:41.728Z,29.77
2018-12-10T01:29:11.913Z,29.50
2018-12-10T01:31:42.191Z,29.20
2018-12-10T01:34:12.969Z,28.07
2018-12-10T01:36:43.165Z,28.67
2018-12-10T01:39:13.372Z,30.30
2018-12-10T01:41:43.844Z,30.33
2018-12-10T01:44:14.039Z,30.13
2018-12-10T01:46:44.209Z,30.50
2018-12-10T01:49:14.280Z,30.70
2018-12-10T01:51:44.642Z,29.43
2018-12-10T01:54:14.938Z,30.03
2018-12-10T01:56:45.177Z,30.17
2018-12-10T01:59:16.066Z,28.33
2018-12-10T02:01:46.360Z,26.97
2018-12-10T02:04:16.557Z,28.73
2018-12-10T02:06:46.852Z,27.80
2018-12-10T02:09:17.037Z,24.53
2018-12-10T02:11:47.325Z,25.53
2018-12-10T02:14:17.475Z,24.67
2018-12-10T02:16:47.691Z,24.43
2018-12-10T02:19:19.123Z,22.87
2018-12-10T02:21:49.376Z,24.20
2018-12-10T02:24:19.599Z,25.60
2018-12-10T02:26:49.971Z,24.97
2018-12-10T02:29:20.153Z,24.33
2018-12-10T02:31:50.565Z,24.37
2018-12-10T02:34:20.653Z,25.77
2018-12-10T02:36:50.946Z,25.27
2018-12-10T02:39:21.179Z,25.90
2018-12-10T02:41:51.431Z,24.70
2018-12-10T02:44:21.579Z,23.60
2018-12-10T02:46:51.910Z,24.33
2018-12-10T02:49:22.083Z,22.97
2018-12-10T02:51:53.366Z,25.47
2018-12-10T02:54:23.604Z,24.90
2018-12-10T02:56:54.053Z,27.43
2018-12-10T02:59:24.228Z,25.33
2018-12-10T03:01:54.474Z,25.03
2018-12-10T03:04:24.925Z,26.37
2018-12-10T03:06:56.178Z,25.73
2018-12-10T03:09:26.349Z,26.43
2018-12-10T03:11:56.623Z,24.47
2018-12-10T03:14:26.888Z,25.57
2018-12-10T03:16:57.035Z,23.07
2018-12-10T03:19:27.211Z,23.67
2018-12-10T03:21:57.550Z,23.30
2018-12-10T03:24:27.808Z,22.57
2018-12-10T03:26:58.351Z,24.03
2018-12-10T03:29:28.611Z,22.80
2018-12-10T03:31:58.776Z,22.90
2018-12-10T03:34:29.082Z,22.67
2018-12-10T03:36:59.345Z,24.10
2018-12-10T03:39:29.381Z,25.00
2018-12-10T03:41:59.698Z,25.37
2018-12-10T03:44:29.991Z,25.30
2018-12-10T03:47:00.232Z,23.73
2018-12-10T03:49:30.497Z,24.90
2018-12-10T03:52:00.771Z,24.07
2018-12-10T03:54:31.019Z,24.57
2018-12-10T03:57:01.274Z,25.13
2018-12-10T03:59:31.686Z,24.20
2018-12-10T04:02:01.899Z,24.63
2018-12-10T04:04:32.124Z,23.03
2018-12-10T04:07:02.255Z,24.93
2018-12-10T04:09:32.491Z,25.77
2018-12-10T04:12:02.772Z,24.93
2018-12-10T04:14:33.436Z,23.83
2018-12-10T04:17:03.904Z,24.77
2018-12-10T04:19:34.237Z,24.90
2018-12-10T04:22:04.498Z,27.07
2018-12-10T04:24:34.886Z,28.13
2018-12-10T04:27:05.038Z,30.30
2018-12-10T04:29:35.386Z,29.47
2018-12-10T04:32:05.561Z,31.20
2018-12-10T04:34:37.242Z,33.17
2018-12-10T04:37:07.887Z,33.07
2018-12-10T04:39:38.164Z,31.90
2018-12-10T04:42:08.354Z,32.57
2018-12-10T04:44:38.633Z,31.70
2018-12-10T04:47:08.847Z,33.63
2018-12-10T04:49:39.128Z,32.27
2018-12-10T04:52:09.239Z,31.33
2018-12-10T04:54:39.388Z,31.70
2018-12-10T04:57:09.637Z,32.97
2018-12-10T04:59:40.876Z,31.33
2018-12-10T05:02:11.548Z,30.37
2018-12-10T05:04:41.784Z,30.17
2018-12-10T05:07:12.115Z,29.20
2018-12-10T05:09:42.522Z,29.67
2018-12-10T05:12:12.812Z,29.07
2018-12-10T05:14:43.043Z,27.03
2018-12-10T05:17:13.234Z,27.90
2018-12-10T05:19:43.418Z,28.10
2018-12-10T05:22:13.500Z,27.93
2018-12-10T05:24:43.848Z,28.63
2018-12-10T05:27:14.186Z,27.63
2018-12-10T05:29:44.332Z,27.43
2018-12-10T05:32:14.396Z,29.87
2018-12-10T05:34:44.708Z,27.97
2018-12-10T05:37:14.996Z,26.80
2018-12-10T05:39:45.176Z,26.27
2018-12-10T05:42:15.206Z,26.27
2018-12-10T05:44:45.134Z,26.73
2018-12-10T05:47:15.189Z,27.13
2018-12-10T05:49:45.314Z,31.07
2018-12-10T05:52:15.645Z,31.83
2018-12-10T05:54:45.986Z,29.70
2018-12-10T05:57:16.299Z,30.80
2018-12-10T05:59:46.682Z,28.47
2018-12-10T06:02:17.020Z,30.67
2018-12-10T06:04:47.303Z,29.33
2018-12-10T06:07:17.437Z,30.53
2018-12-10T06:09:47.579Z,31.23
2018-12-10T06:12:17.907Z,28.90
2018-12-10T06:14:48.454Z,28.87
2018-12-10T06:17:18.688Z,27.90
2018-12-10T06:19:48.823Z,29.43
2018-12-10T06:22:19.227Z,29.37
2018-12-10T06:24:49.377Z,27.80
2018-12-10T06:27:19.784Z,26.80
2018-12-10T06:29:50.117Z,27.53
2018-12-10T06:32:20.343Z,26.43
2018-12-10T06:34:50.421Z,26.50
2018-12-10T06:37:20.767Z,29.10
2018-12-10T06:39:51.062Z,31.27
2018-12-10T06:42:21.330Z,30.83
2018-12-10T06:44:51.606Z,31.07
2018-12-10T06:47:22.651Z,30.20
2018-12-10T06:49:52.887Z,31.67
2018-12-10T06:52:23.134Z,34.43
2018-12-10T06:54:53.327Z,32.77
2018-12-10T06:57:23.432Z,31.13
2018-12-10T06:59:53.580Z,29.17
2018-12-10T07:02:23.802Z,31.53
2018-12-10T07:04:53.896Z,32.63
2018-12-10T07:07:24.192Z,31.30
2018-12-10T07:09:54.395Z,34.33
2018-12-10T07:13:53.914Z,35.37
2018-12-10T07:16:24.408Z,62.33
2018-12-10T07:18:54.752Z,60.77
2018-12-10T07:21:24.898Z,64.17
2018-12-10T07:23:55.169Z,63.67
2018-12-10T07:26:25.488Z,66.03
2018-12-10T07:28:55.729Z,60.67
2018-12-10T07:31:25.944Z,67.53
2018-12-10T07:33:56.308Z,63.97
2018-12-10T07:36:26.573Z,66.13
2018-12-10T07:38:56.803Z,68.47
2018-12-10T07:41:27.041Z,63.83
2018-12-10T07:43:57.504Z,64.20
2018-12-10T07:46:27.698Z,64.40
2018-12-10T07:48:57.934Z,60.57
2018-12-10T07:51:28.072Z,62.63
2018-12-10T07:53:58.150Z,65.67
2018-12-10T07:56:29.048Z,66.93
2018-12-10T07:58:59.851Z,76.93
2018-12-10T08:01:30.077Z,74.07
2018-12-10T08:04:00.321Z,79.13
2018-12-10T08:06:30.561Z,87.20
2018-12-10T08:09:00.816Z,92.00
2018-12-10T08:11:31.891Z,100.00
2018-12-10T08:14:03.635Z,90.07
2018-12-10T08:16:34.069Z,86.57
2018-12-10T08:19:04.417Z,88.87
2018-12-10T08:21:34.662Z,84.50
2018-12-10T08:24:04.863Z,84.07
2018-12-10T08:26:35.115Z,89.10
2018-12-10T08:30:57.535Z,80.90
2018-12-10T08:31:37.496Z,77.60
2018-12-10T08:34:07.926Z,76.50
2018-12-10T08:36:38.864Z,64.07
2018-12-10T08:39:09.170Z,63.27
2018-12-10T08:41:39.441Z,63.83
2018-12-10T08:44:10.357Z,60.70
2018-12-10T08:46:40.626Z,61.17
2018-12-10T08:49:10.845Z,58.07
2018-12-10T08:51:41.119Z,53.40
2018-12-10T08:54:11.649Z,52.90
2018-12-10T08:56:41.976Z,49.53
2018-12-10T08:59:12.328Z,46.60
2018-12-10T09:01:42.555Z,45.80
2018-12-10T09:04:12.809Z,46.27
2018-12-10T09:06:43.064Z,37.37
2018-12-10T09:09:13.171Z,36.90
2018-12-10T09:11:43.299Z,37.23
2018-12-10T09:14:13.513Z,38.03
2018-12-10T09:16:43.749Z,44.63
2018-12-10T09:19:14.000Z,35.73
2018-12-10T09:21:44.823Z,31.50
2018-12-10T09:24:15.005Z,23.20
2018-12-10T09:26:45.425Z,19.60
2018-12-10T09:29:15.714Z,16.87
2018-12-10T09:31:45.985Z,16.20
2018-12-10T09:34:16.201Z,15.77
2018-12-10T09:36:47.225Z,14.87
2018-12-10T09:39:17.420Z,14.77
2018-12-10T09:41:47.532Z,14.70
2018-12-10T09:44:17.871Z,13.57
2018-12-10T09:46:48.210Z,13.37
2018-12-10T09:49:19.004Z,13.30
2018-12-10T09:51:49.413Z,13.83
2018-12-10T09:54:19.812Z,13.83
2018-12-10T09:56:50.155Z,14.63
2018-12-10T09:59:20.367Z,14.03
2018-12-10T10:01:50.610Z,14.53
2018-12-10T10:04:20.997Z,13.60
2018-12-10T10:06:51.414Z,13.93
2018-12-10T10:09:22.124Z,14.63
2018-12-10T10:11:52.399Z,14.73
2018-12-10T10:14:22.681Z,14.83
2018-12-10T10:16:52.897Z,14.40
2018-12-10T10:19:23.202Z,14.47
2018-12-10T10:21:53.563Z,15.43
2018-12-10T10:24:23.926Z,15.27
2018-12-10T10:26:54.003Z,16.90
2018-12-10T10:29:24.271Z,15.37
2018-12-10T10:31:55.249Z,14.50
2018-12-10T10:34:25.577Z,14.37
2018-12-10T10:36:55.695Z,13.63
2018-12-10T10:39:26.260Z,13.97
2018-12-10T10:41:57.430Z,12.70
2018-12-10T10:44:27.874Z,13.00
2018-12-10T10:46:58.172Z,12.57
2018-12-10T10:49:28.475Z,13.37
2018-12-10T10:51:58.924Z,13.07
2018-12-10T10:54:29.329Z,12.87
2018-12-10T10:56:59.455Z,12.70
2018-12-10T10:59:29.603Z,13.10
2018-12-10T11:02:04.959Z,12.80
2018-12-10T11:04:37.631Z,12.70
2018-12-10T11:07:07.365Z,11.93
2018-12-10T11:09:37.743Z,11.97
2018-12-10T11:12:08.083Z,10.20
2018-12-10T11:14:38.904Z,11.63
2018-12-10T11:17:09.613Z,11.77
2018-12-10T11:19:39.820Z,11.27
2018-12-10T11:22:10.273Z,11.10
2018-12-10T11:24:41.274Z,11.00
2018-12-10T11:27:11.642Z,11.07
2018-12-10T11:29:42.026Z,11.33
2018-12-10T11:32:12.423Z,10.80
2018-12-10T11:34:42.621Z,9.93
2018-12-10T11:37:12.874Z,10.70
2018-12-10T11:39:43.225Z,10.47
2018-12-10T11:42:13.562Z,10.40
2018-12-10T11:44:43.710Z,11.27
2018-12-10T11:47:14.056Z,10.63
2018-12-10T11:49:44.403Z,10.73
2018-12-10T11:52:14.601Z,10.97
2018-12-10T11:54:44.702Z,11.03
2018-12-10T11:57:14.876Z,10.70
2018-12-10T11:59:46.177Z,11.00
2018-12-10T12:02:16.516Z,13.10
2018-12-10T12:04:47.107Z,12.20
2018-12-10T12:07:19.415Z,10.27
2018-12-10T12:09:49.681Z,11.23
2018-12-10T12:12:20.046Z,11.27
2018-12-10T12:14:50.347Z,11.10
2018-12-10T12:17:21.145Z,11.30
2018-12-10T12:19:51.587Z,11.33
2018-12-10T12:22:21.931Z,12.30
2018-12-10T12:24:52.054Z,11.67
2018-12-10T12:27:23.933Z,11.07
2018-12-10T12:29:54.280Z,11.50
2018-12-10T12:32:24.589Z,12.73
2018-12-10T12:34:54.844Z,12.13
2018-12-10T12:37:25.104Z,11.73
2018-12-10T12:39:55.402Z,12.57
2018-12-10T12:42:25.656Z,12.60
2018-12-10T12:44:55.909Z,12.47
2018-12-10T12:47:26.110Z,12.60
2018-12-10T12:49:56.429Z,12.67
2018-12-10T12:52:26.727Z,13.50
2018-12-10T12:54:56.823Z,13.07
2018-12-10T12:57:27.203Z,12.93
2018-12-10T12:59:57.442Z,13.57
2018-12-10T13:02:27.625Z,13.57
2018-12-10T13:04:57.864Z,13.60
2018-12-10T13:07:28.158Z,13.97
2018-12-10T13:09:58.481Z,13.33
2018-12-10T13:12:28.694Z,14.37
2018-12-10T13:14:58.984Z,14.07
2018-12-10T13:17:29.217Z,13.50
2018-12-10T13:19:59.637Z,13.77
2018-12-10T13:22:29.944Z,13.20
2018-12-10T13:25:00.195Z,13.53
2018-12-10T13:27:30.451Z,14.13
2018-12-10T13:30:00.697Z,13.37
2018-12-10T13:32:31.139Z,13.00
2018-12-10T13:35:01.441Z,14.43
2018-12-10T13:37:31.742Z,14.00
2018-12-10T13:40:01.890Z,14.13
2018-12-10T13:42:32.139Z,14.43
2018-12-10T13:45:03.050Z,15.23
2018-12-10T13:47:33.428Z,13.87
2018-12-10T13:50:03.938Z,15.03
2018-12-10T13:52:34.292Z,14.73
2018-12-10T13:55:04.716Z,15.57
2018-12-10T13:57:34.977Z,15.30
2018-12-10T14:00:05.866Z,16.07
2018-12-10T14:02:36.820Z,15.60
2018-12-10T14:05:11.182Z,15.20
2018-12-10T14:07:41.538Z,16.10
2018-12-10T14:10:11.662Z,15.63
2018-12-10T14:12:41.820Z,16.77
2018-12-10T14:15:12.115Z,16.33
2018-12-10T14:17:42.404Z,17.43
2018-12-10T14:20:12.717Z,17.80
2018-12-10T14:22:43.093Z,16.93
2018-12-10T14:25:23.052Z,17.93
2018-12-10T14:27:53.565Z,17.80
2018-12-10T14:30:24.153Z,17.80
2018-12-10T14:32:54.660Z,17.63
2018-12-10T14:35:24.713Z,19.03
2018-12-10T14:37:54.918Z,19.13
2018-12-10T14:40:25.189Z,19.10
2018-12-10T14:42:57.285Z,18.73
2018-12-10T14:45:27.681Z,19.47
2018-12-10T14:47:58.251Z,20.13
2018-12-10T14:50:28.396Z,20.40
2018-12-10T14:52:58.674Z,17.57
2018-12-10T14:55:29.026Z,17.73
2018-12-10T14:57:59.333Z,17.27
2018-12-10T15:00:29.545Z,17.67
2018-12-10T15:02:59.715Z,17.47
2018-12-10T15:05:30.144Z,17.63
2018-12-10T15:08:00.343Z,16.67
2018-12-10T15:10:30.695Z,17.03
2018-12-10T15:13:01.005Z,16.43
2018-12-10T15:15:31.509Z,16.90
2018-12-10T15:18:01.746Z,17.10
2018-12-10T15:20:31.993Z,17.23
2018-12-10T15:23:02.213Z,17.17
2018-12-10T15:25:32.572Z,17.20
2018-12-10T15:28:03.078Z,18.20
2018-12-10T15:30:33.366Z,16.47
2018-12-10T15:33:03.660Z,15.37
2018-12-10T15:35:34.027Z,15.40
2018-12-10T15:38:04.346Z,14.20
2018-12-10T15:40:34.625Z,14.93
2018-12-10T15:43:04.776Z,13.50
2018-12-10T15:45:35.036Z,14.20
2018-12-10T15:48:05.636Z,14.77
2018-12-10T15:50:35.927Z,14.03
2018-12-10T15:53:06.136Z,14.20
2018-12-10T15:55:36.487Z,15.47
2018-12-10T15:58:06.761Z,15.37
2018-12-10T16:00:37.265Z,17.13
2018-12-10T16:03:07.533Z,15.27
2018-12-10T16:05:37.756Z,15.53
2018-12-10T16:08:08.001Z,15.00
2018-12-10T16:10:38.300Z,15.13
2018-12-10T16:13:08.807Z,15.37
2018-12-10T16:15:39.185Z,15.33
2018-12-10T16:18:09.487Z,17.43
2018-12-10T16:20:39.808Z,16.30
2018-12-10T16:23:10.409Z,18.07
2018-12-10T16:25:40.633Z,15.90
2018-12-10T16:28:11.052Z,16.87
2018-12-10T16:30:41.379Z,16.67
2018-12-10T16:33:12.059Z,15.70
2018-12-10T16:35:42.516Z,16.67
2018-12-10T16:38:12.797Z,17.03
2018-12-10T16:40:42.902Z,16.70
2018-12-10T16:43:13.337Z,15.97
2018-12-10T16:45:43.688Z,15.87
2018-12-10T16:48:13.924Z,16.00
2018-12-10T16:50:44.266Z,15.77
2018-12-10T16:53:14.608Z,16.00
2018-12-10T16:55:44.817Z,15.67
2018-12-10T16:58:14.972Z,15.30
2018-12-10T17:00:45.451Z,15.67
2018-12-10T17:03:15.818Z,15.63
2018-12-10T17:05:46.193Z,15.37
2018-12-10T17:08:16.444Z,15.80
2018-12-10T17:10:46.844Z,15.83
2018-12-10T17:13:17.546Z,14.10
2018-12-10T17:15:47.977Z,14.77
2018-12-10T17:18:18.196Z,14.43
2018-12-10T17:20:48.671Z,14.03
2018-12-10T17:23:20.024Z,14.60
2018-12-10T17:25:50.299Z,14.43
2018-12-10T17:28:20.598Z,13.17
2018-12-10T17:30:50.888Z,13.30
2018-12-10T17:33:21.166Z,12.23
2018-12-10T17:35:51.532Z,13.33
2018-12-10T17:38:21.640Z,14.20
2018-12-10T17:42:21.179Z,12.30
2018-12-10T17:44:51.599Z,11.33
2018-12-10T17:47:21.918Z,11.87
2018-12-10T17:49:52.609Z,11.80
2018-12-10T17:52:23.004Z,11.23
2018-12-10T17:54:54.559Z,12.13
2018-12-10T17:57:24.924Z,11.30
2018-12-10T17:59:55.151Z,12.47
2018-12-10T18:02:25.579Z,12.80
2018-12-10T18:04:56.892Z,12.50
2018-12-10T18:07:27.234Z,14.53
2018-12-10T18:09:57.453Z,12.37
2018-12-10T18:12:27.657Z,12.17
2018-12-10T18:14:58.093Z,12.23
2018-12-10T18:17:28.171Z,11.97
2018-12-10T18:19:58.326Z,12.80
2018-12-10T18:22:28.755Z,14.07
2018-12-10T18:24:58.985Z,12.80
2018-12-10T18:27:29.398Z,12.80
2018-12-10T18:29:59.946Z,12.87
2018-12-10T18:32:30.322Z,12.07
2018-12-10T18:35:00.836Z,16.47
2018-12-10T18:37:31.132Z,10.47
2018-12-10T18:40:01.507Z,11.93
2018-12-10T18:42:31.808Z,11.40
2018-12-10T18:45:02.747Z,10.03
2018-12-10T18:47:33.059Z,11.20
2018-12-10T18:50:03.428Z,12.10
2018-12-10T18:52:33.569Z,10.97
2018-12-10T18:55:04.120Z,11.57
2018-12-10T18:57:34.246Z,11.23
2018-12-10T19:00:06.476Z,11.27
2018-12-10T19:02:36.755Z,12.73
2018-12-10T19:05:07.310Z,11.90
2018-12-10T19:07:37.786Z,11.33
2018-12-10T19:10:09.349Z,11.10
2018-12-10T19:12:39.754Z,11.27
2018-12-10T19:15:11.103Z,11.53
2018-12-10T19:17:42.345Z,9.93
2018-12-10T19:20:13.695Z,9.00
2018-12-10T19:22:44.178Z,11.47
2018-12-10T19:25:14.460Z,11.03
2018-12-10T19:27:44.820Z,9.17
2018-12-10T19:30:15.274Z,9.50
2018-12-10T19:32:45.597Z,9.70
2018-12-10T19:35:15.870Z,12.03
2018-12-10T19:37:46.050Z,9.77
2018-12-10T19:40:16.223Z,9.53
2018-12-10T19:42:46.498Z,9.80
2018-12-10T19:45:16.726Z,11.40
2018-12-10T19:47:47.290Z,9.67
2018-12-10T19:50:17.740Z,9.67
2018-12-10T19:52:49.627Z,8.97
2018-12-10T19:55:20.582Z,9.13
2018-12-10T19:57:51.877Z,10.10
2018-12-10T20:00:23.915Z,9.03
2018-12-10T20:02:54.155Z,8.70
2018-12-10T20:05:28.443Z,9.57
2018-12-10T20:07:58.795Z,9.23
2018-12-10T20:10:29.196Z,9.27
2018-12-10T20:12:59.427Z,8.07
2018-12-10T20:15:29.715Z,8.80
2018-12-10T20:18:00.085Z,8.40
2018-12-10T20:20:30.225Z,12.63
2018-12-10T20:23:00.461Z,8.80
2018-12-10T20:25:30.732Z,8.73
2018-12-10T20:28:01.143Z,8.83
2018-12-10T20:30:31.358Z,7.17
2018-12-10T20:33:01.501Z,7.23
2018-12-10T20:35:31.713Z,8.43
2018-12-10T20:38:02.027Z,7.60
2018-12-10T20:40:32.335Z,8.53
2018-12-10T20:43:02.582Z,8.57
2018-12-10T20:45:32.722Z,7.17
2018-12-10T20:48:02.968Z,7.17
2018-12-10T20:50:33.137Z,6.87
2018-12-10T20:53:03.198Z,6.90
2018-12-10T20:55:33.573Z,6.57
2018-12-10T20:58:03.830Z,6.33
2018-12-10T21:00:34.106Z,7.10
2018-12-10T21:03:04.458Z,6.40
2018-12-10T21:07:03.789Z,6.33
2018-12-10T21:09:34.131Z,5.67
2018-12-10T21:12:04.659Z,6.03
2018-12-10T21:14:34.889Z,6.00
2018-12-10T21:17:05.132Z,6.07
2018-12-10T21:19:35.560Z,5.40
2018-12-10T21:22:05.629Z,5.80
2018-12-10T21:24:36.105Z,5.10
2018-12-10T21:27:07.272Z,5.17
2018-12-10T21:29:37.572Z,4.87
2018-12-10T21:32:07.927Z,5.07
2018-12-10T21:34:38.068Z,5.27
2018-12-10T21:37:08.334Z,7.03
2018-12-10T21:39:38.555Z,5.47
2018-12-10T21:42:08.785Z,4.90
2018-12-10T21:44:39.028Z,4.73
2018-12-10T21:47:11.060Z,4.53
2018-12-10T21:49:41.284Z,5.43
2018-12-10T21:52:12.459Z,5.17
2018-12-10T21:54:42.688Z,4.30
2018-12-10T21:57:13.088Z,4.57
2018-12-10T21:59:43.273Z,4.90
2018-12-10T22:02:13.414Z,4.00
2018-12-10T22:04:43.659Z,5.00
2018-12-10T22:07:13.961Z,4.00
2018-12-10T22:09:44.179Z,3.80
2018-12-10T22:12:14.482Z,4.00
2018-12-10T22:14:44.556Z,4.07
2018-12-10T22:17:14.847Z,4.73
2018-12-10T22:19:45.030Z,4.43
2018-12-10T22:22:15.313Z,5.13
2018-12-10T22:24:45.350Z,4.50
2018-12-10T22:27:15.689Z,4.30
2018-12-10T22:29:46.137Z,5.53
2018-12-10T22:32:16.341Z,4.23
2018-12-10T22:34:46.585Z,4.20
2018-12-10T22:37:16.819Z,4.47
2018-12-10T22:39:47.059Z,4.20
2018-12-10T22:42:17.573Z,4.03
2018-12-10T22:44:47.847Z,3.80
2018-12-10T22:47:18.377Z,4.30
2018-12-10T22:49:48.651Z,4.90
2018-12-10T22:52:18.895Z,4.70
2018-12-10T22:54:49.464Z,4.23
2018-12-10T22:57:19.585Z,3.90
2018-12-10T22:59:49.825Z,4.17
2018-12-10T23:02:20.136Z,4.10
2018-12-10T23:04:51.625Z,4.43
2018-12-10T23:07:22.891Z,4.43
2018-12-10T23:09:54.021Z,4.80
2018-12-10T23:12:24.392Z,4.20
2018-12-10T23:14:54.584Z,4.27
2018-12-10T23:17:24.947Z,4.57
2018-12-10T23:19:55.133Z,4.20
2018-12-10T23:22:25.317Z,3.80
2018-12-10T23:24:55.590Z,4.10
2018-12-10T23:27:25.718Z,4.37
2018-12-10T23:29:56.654Z,3.93
2018-12-10T23:32:26.928Z,3.60
2018-12-10T23:34:57.185Z,4.03
2018-12-10T23:37:28.371Z,4.37
2018-12-10T23:39:58.591Z,5.70
2018-12-10T23:42:29.099Z,5.17
2018-12-10T23:44:59.429Z,4.40
2018-12-10T23:47:29.779Z,4.33
2018-12-10T23:49:59.883Z,4.30
2018-12-10T23:52:30.014Z,4.43
2018-12-10T23:55:00.322Z,4.30
2018-12-10T23:57:30.545Z,4.00
